Dades meteomassalio
Diari Summary for Gener 28, 2017 Units:  English    Metric   Both
« Previous Day
Next Day »
Diari Semanal Mensual Anual Personalitzat
  Maxima: Minima: Mijana:
Temperatura: TemperatureC °F 6.3 °F 8.5 °F
Rosada: DewpointC °F 1.9 °F 4.1 °F
Humitat: Humidity % 54 % 75 %
Velocitat del vent: WindSpeedKMH mph 0.0 mph 25.2 mph
Racha vent: WindSpeedGustKMH mph - -
Vent:- - WNW
Pressio: PressurehPa in 1011.7 in -
Pluja: 7.9 in    
Historical Graphs
 
 
Tabular Data for Gener 28, 2017
Time Temperature Dew Point Pressure Wind Wind Speed Wind Gust Humidity Rainfall Rate (Hourly) solar Conditions
TemperatureC °F DewpointC °F PressurehPa in Calm     Humidity % HourlyPrecipMM in SolarRadiationWatts/m^2 W/m2 Conditions
00:03 8.3 °F 5.9 °F 1011.7 in WNW 31.5 mph 31.5 mph 85 % 0.0 in 0.0 W/m2 RA
00:08 8.3 °F 5.6 °F 1012.1 in WNW 27.8 mph 27.8 mph 83 % 0.0 in 0.0 W/m2 CLR
00:13 8.2 °F 5.5 °F 1012.1 in WNW 24.1 mph 24.1 mph 83 % 0.0 in 0.0 W/m2 CLR
00:18 8.1 °F 5.4 °F 1012.1 in WNW 24.1 mph 24.1 mph 83 % 0.0 in 0.0 W/m2 CLR
00:23 8.1 °F 5.5 °F 1012.1 in WNW 25.9 mph 25.9 mph 84 % 0.0 in 0.0 W/m2 CLR
00:28 7.9 °F 5.5 °F 1012.1 in WNW 31.5 mph 31.5 mph 85 % 0.0 in 0.0 W/m2 CLR
00:33 7.8 °F 5.6 °F 1012.4 in WNW 29.6 mph 29.6 mph 86 % 0.0 in 0.0 W/m2 CLR
00:38 7.7 °F 5.5 °F 1012.4 in WNW 24.1 mph 24.1 mph 86 % 0.0 in 0.0 W/m2 CLR
00:43 7.7 °F 5.5 °F 1012.4 in WNW 24.1 mph 24.1 mph 86 % 0.0 in 0.0 W/m2 CLR
00:48 7.7 °F 5.7 °F 1012.4 in WNW 18.5 mph 18.5 mph 87 % 0.0 in 0.0 W/m2 CLR
00:53 7.6 °F 5.6 °F 1012.4 in WNW 16.7 mph 16.7 mph 87 % 0.0 in 0.0 W/m2 CLR
00:58 7.6 °F 5.7 °F 1012.8 in WNW 18.5 mph 18.5 mph 88 % 0.0 in 0.0 W/m2 CLR
01:03 7.6 °F 5.8 °F 1012.8 in WNW 27.8 mph 27.8 mph 89 % 0.0 in 0.0 W/m2 CLR
01:08 7.5 °F 5.9 °F 1012.8 in WNW 29.6 mph 29.6 mph 90 % 0.0 in 0.0 W/m2 CLR
01:13 7.4 °F 6.0 °F 1012.8 in WNW 18.5 mph 18.5 mph 91 % 0.0 in 0.0 W/m2 CLR
01:18 7.3 °F 5.9 °F 1012.8 in NW 18.5 mph 18.5 mph 91 % 0.3 in 0.0 W/m2 RA
01:23 7.1 °F 5.7 °F 1012.8 in NW 20.4 mph 20.4 mph 91 % 0.3 in 0.0 W/m2
01:28 7.0 °F 5.6 °F 1012.8 in NW 29.6 mph 29.6 mph 91 % 0.3 in 0.0 W/m2 CLR
01:33 6.9 °F 5.7 °F 1012.8 in NW 29.0 mph 29.0 mph 92 % 0.3 in 0.0 W/m2 CLR
01:38 6.8 °F 5.6 °F 1012.8 in NW 25.9 mph 25.9 mph 92 % 0.3 in 0.0 W/m2 CLR
01:43 6.8 °F 5.6 °F 1012.8 in NW 24.1 mph 24.1 mph 92 % 0.3 in 0.0 W/m2 CLR
01:48 6.8 °F 5.6 °F 1012.8 in NW 29.6 mph 29.6 mph 92 % 0.3 in 0.0 W/m2 CLR
01:53 6.8 °F 5.6 °F 1012.8 in NW 25.9 mph 25.9 mph 92 % 0.3 in 0.0 W/m2 CLR
01:58 6.7 °F 5.5 °F 1012.8 in NW 22.5 mph 22.5 mph 92 % 0.3 in 0.0 W/m2 CLR
02:03 6.7 °F 5.5 °F 1012.8 in NW 31.5 mph 31.5 mph 92 % 0.3 in 0.0 W/m2 CLR
02:08 6.7 °F 5.4 °F 1013.1 in NW 29.6 mph 29.6 mph 92 % 0.8 in 0.0 W/m2 RA
02:13 6.7 °F 5.4 °F 1013.1 in NW 25.9 mph 25.9 mph 92 % 1.0 in 0.0 W/m2 RA
02:18 6.7 °F 5.4 °F 1013.4 in NW 27.8 mph 27.8 mph 92 % 1.3 in 0.0 W/m2 RA
02:23 6.6 °F 5.4 °F 1013.4 in NW 33.8 mph 33.8 mph 92 % 1.5 in 0.0 W/m2 RA
02:28 6.6 °F 5.4 °F 1013.1 in NW 25.9 mph 25.9 mph 92 % 2.8 in 0.0 W/m2 RA
02:33 6.6 °F 5.3 °F 1013.4 in NW 25.9 mph 25.9 mph 92 % 3.3 in 0.0 W/m2 RA
02:38 6.6 °F 5.5 °F 1013.4 in NW 22.2 mph 22.2 mph 93 % 3.6 in 0.0 W/m2 RA
02:43 6.6 °F 5.4 °F 1013.4 in NW 20.4 mph 20.4 mph 92 % 3.8 in 0.0 W/m2 RA
02:48 6.6 °F 5.4 °F 1013.4 in NW 22.5 mph 22.5 mph 92 % 4.1 in 0.0 W/m2 RA
02:53 6.6 °F 5.6 °F 1013.4 in NW 31.5 mph 31.5 mph 93 % 4.1 in 0.0 W/m2 CLR
02:58 6.7 °F 5.6 °F 1013.8 in NW 33.3 mph 33.3 mph 93 % 4.3 in 0.0 W/m2 RA
03:03 6.6 °F 5.6 °F 1013.8 in NW 31.5 mph 31.5 mph 93 % 4.3 in 0.0 W/m2 CLR
03:08 6.6 °F 5.6 °F 1013.8 in NW 27.8 mph 27.8 mph 93 % 3.8 in 0.0 W/m2 RA
03:13 6.6 °F 5.6 °F 1013.8 in NW 29.6 mph 29.6 mph 93 % 3.6 in 0.0 W/m2 CLR
03:18 6.6 °F 5.6 °F 1013.8 in NW 25.9 mph 25.9 mph 93 % 3.3 in 0.0 W/m2 CLR
03:23 6.6 °F 5.6 °F 1013.8 in NW 29.6 mph 29.6 mph 93 % 3.0 in 0.0 W/m2 RA
03:28 6.6 °F 5.6 °F 1013.8 in NW 31.5 mph 31.5 mph 93 % 1.8 in 0.0 W/m2 CLR
03:33 6.6 °F 5.6 °F 1014.1 in NW 18.5 mph 18.5 mph 93 % 1.5 in 0.0 W/m2 RA
03:39 6.6 °F 5.5 °F 1014.1 in NW 25.9 mph 25.9 mph 93 % 1.3 in 0.0 W/m2
03:44 6.6 °F 5.5 °F 1014.1 in WNW 22.2 mph 22.2 mph 93 % 1.0 in 0.0 W/m2 CLR
03:49 6.6 °F 5.5 °F 1014.1 in NW 29.6 mph 29.6 mph 93 % 1.3 in 0.0 W/m2 RA
03:54 6.6 °F 5.5 °F 1014.1 in NW 18.5 mph 18.5 mph 93 % 1.5 in 0.0 W/m2 RA
03:59 6.6 °F 5.5 °F 1014.1 in NW 29.6 mph 29.6 mph 93 % 1.3 in 0.0 W/m2
04:04 6.6 °F 5.6 °F 1014.1 in NW 20.4 mph 20.4 mph 93 % 1.5 in 0.0 W/m2 RA
04:09 6.6 °F 5.6 °F 1014.1 in NW 27.8 mph 27.8 mph 93 % 1.3 in 0.0 W/m2 CLR
04:14 6.7 °F 5.6 °F 1014.1 in NW 24.1 mph 24.1 mph 93 % 1.5 in 0.0 W/m2 RA
04:19 6.7 °F 5.7 °F 1014.1 in NW 22.2 mph 22.2 mph 93 % 1.3 in 0.0 W/m2 CLR
04:24 6.7 °F 5.7 °F 1014.4 in NW 24.1 mph 24.1 mph 93 % 1.3 in 0.0 W/m2 CLR
04:28 6.7 °F 5.7 °F 1014.4 in NW 22.2 mph 22.2 mph 93 % 1.3 in 0.0 W/m2 CLR
04:33 6.7 °F 5.7 °F 1014.4 in NW 16.7 mph 16.7 mph 93 % 1.0 in 0.0 W/m2 CLR
04:38 6.7 °F 5.7 °F 1014.4 in NW 31.5 mph 31.5 mph 93 % 1.0 in 0.0 W/m2 CLR
04:43 6.8 °F 5.7 °F 1014.8 in NW 22.5 mph 22.5 mph 93 % 1.0 in 0.0 W/m2 CLR
04:48 6.8 °F 5.7 °F 1014.8 in NW 18.5 mph 18.5 mph 93 % 0.5 in 0.0 W/m2 CLR
04:53 6.8 °F 5.7 °F 1014.8 in NW 18.5 mph 18.5 mph 93 % 0.5 in 0.0 W/m2 CLR
04:58 6.8 °F 5.7 °F 1014.8 in NW 22.2 mph 22.2 mph 93 % 0.5 in 0.0 W/m2 CLR
05:03 6.8 °F 5.7 °F 1014.8 in NW 22.2 mph 22.2 mph 93 % 0.3 in 0.0 W/m2 CLR
05:13 6.7 °F 5.5 °F 1015.1 in NW 22.2 mph 22.2 mph 92 % 0.0 in 0.0 W/m2 CLR
05:18 6.7 °F 5.7 °F 1015.1 in NW 22.2 mph 22.2 mph 93 % 0.0 in 0.0 W/m2 CLR
05:23 6.7 °F 5.5 °F 1015.1 in NW 29.6 mph 29.6 mph 92 % 0.0 in 0.0 W/m2 CLR
05:28 6.8 °F 5.6 °F 1015.5 in NW 22.2 mph 22.2 mph 92 % 0.0 in 0.0 W/m2 CLR
05:33 6.8 °F 5.6 °F 1015.5 in NW 22.5 mph 22.5 mph 92 % 0.0 in 0.0 W/m2 CLR
05:38 6.8 °F 5.6 °F 1015.5 in NW 31.5 mph 31.5 mph 92 % 0.0 in 0.0 W/m2 CLR
05:43 6.8 °F 5.4 °F 1015.8 in NW 25.9 mph 25.9 mph 91 % 0.0 in 0.0 W/m2 CLR
05:48 6.8 °F 5.4 °F 1015.8 in NW 27.4 mph 27.4 mph 91 % 0.0 in 0.0 W/m2 CLR
05:53 6.8 °F 5.4 °F 1015.8 in NW 31.5 mph 31.5 mph 91 % 0.0 in 0.0 W/m2 CLR
05:58 6.8 °F 5.4 °F 1015.8 in NW 31.5 mph 31.5 mph 91 % 0.0 in 0.0 W/m2 CLR
06:03 6.7 °F 5.3 °F 1015.8 in NW 18.5 mph 18.5 mph 91 % 0.0 in 0.0 W/m2 CLR
06:08 6.7 °F 5.3 °F 1016.1 in NW 20.4 mph 20.4 mph 91 % 0.0 in 0.0 W/m2 CLR
06:13 6.7 °F 5.3 °F 1016.1 in NW 24.1 mph 24.1 mph 91 % 0.0 in 0.0 W/m2 CLR
06:18 6.7 °F 5.3 °F 1016.5 in NW 24.1 mph 24.1 mph 91 % 0.0 in 0.0 W/m2 CLR
06:23 6.7 °F 5.3 °F 1016.5 in NW 27.8 mph 27.8 mph 91 % 0.0 in 0.0 W/m2 CLR
06:28 6.7 °F 5.3 °F 1016.5 in NW 29.6 mph 29.6 mph 91 % 0.0 in 0.0 W/m2 CLR
06:33 6.6 °F 5.2 °F 1016.5 in NW 22.5 mph 22.5 mph 91 % 0.5 in 0.0 W/m2 RA
06:38 6.6 °F 5.2 °F 1016.5 in NW 31.5 mph 31.5 mph 91 % 0.5 in 0.0 W/m2
06:43 6.5 °F 5.1 °F 1016.5 in NW 33.3 mph 33.3 mph 91 % 0.5 in 0.0 W/m2 RA
06:48 6.5 °F 5.1 °F 1016.8 in NW 27.8 mph 27.8 mph 91 % 0.8 in 0.0 W/m2 RA
06:53 6.4 °F 5.1 °F 1016.8 in NW 25.9 mph 25.9 mph 91 % 1.0 in 0.0 W/m2 RA
06:58 6.4 °F 5.1 °F 1016.8 in NW 22.2 mph 22.2 mph 91 % 1.0 in 0.0 W/m2
07:03 6.4 °F 5.0 °F 1016.8 in NW 29.0 mph 29.0 mph 91 % 1.3 in 0.0 W/m2 RA
07:08 6.4 °F 5.0 °F 1016.8 in NW 24.1 mph 24.1 mph 91 % 1.3 in 0.0 W/m2 CLR
07:13 6.4 °F 5.0 °F 1017.2 in NW 24.1 mph 24.1 mph 91 % 1.5 in 0.0 W/m2 RA
07:18 6.3 °F 4.9 °F 1017.2 in NW 25.7 mph 25.7 mph 91 % 1.5 in 0.0 W/m2 CLR
07:23 6.3 °F 4.9 °F 1017.2 in NW 22.2 mph 22.2 mph 91 % 1.5 in 0.0 W/m2 CLR
07:28 6.3 °F 4.9 °F 1017.5 in NW 22.2 mph 22.2 mph 91 % 1.8 in 0.0 W/m2 RA
07:33 6.4 °F 4.9 °F 1017.5 in NW 22.2 mph 22.2 mph 90 % 1.5 in 0.0 W/m2 CLR
07:38 6.4 °F 4.9 °F 1017.5 in NW 29.6 mph 29.6 mph 90 % 1.5 in 0.0 W/m2 CLR
07:43 6.4 °F 4.9 °F 1017.5 in NW 20.4 mph 20.4 mph 90 % 1.3 in 0.0 W/m2 CLR
07:48 6.4 °F 4.9 °F 1017.8 in NW 29.6 mph 29.6 mph 90 % 1.0 in 0.0 W/m2 CLR
07:53 6.5 °F 4.8 °F 1017.8 in NW 31.5 mph 31.5 mph 89 % 0.8 in 0.0 W/m2 CLR
07:58 6.6 °F 4.9 °F 1017.8 in NW 35.2 mph 35.2 mph 89 % 0.8 in 0.0 W/m2 CLR
08:03 6.6 °F 4.8 °F 1017.8 in NW 35.2 mph 35.2 mph 88 % 0.5 in 0.0 W/m2 OVC
08:08 6.6 °F 4.8 °F 1018.2 in NW 27.8 mph 27.8 mph 88 % 0.5 in 0.0 W/m2 OVC
08:13 6.6 °F 4.8 °F 1018.2 in NW 29.6 mph 29.6 mph 88 % 0.5 in 0.0 W/m2 OVC
08:18 6.7 °F 4.8 °F 1018.2 in NW 29.6 mph 29.6 mph 88 % 0.5 in 0.0 W/m2 OVC
08:23 6.6 °F 4.8 °F 1018.2 in NW 20.4 mph 20.4 mph 88 % 0.5 in 0.0 W/m2 OVC
08:28 6.6 °F 4.8 °F 1018.2 in WNW 16.7 mph 16.7 mph 88 % 0.0 in 0.0 W/m2 OVC
08:33 6.7 °F 4.8 °F 1018.5 in WNW 18.5 mph 18.5 mph 88 % 0.0 in 5.0 W/m2 OVC
08:38 6.7 °F 4.7 °F 1018.5 in WNW 22.2 mph 22.2 mph 87 % 0.0 in 7.0 W/m2 BKN
08:43 6.8 °F 4.8 °F 1018.5 in NW 22.2 mph 22.2 mph 87 % 0.0 in 11.0 W/m2 BKN
08:48 6.8 °F 4.6 °F 1018.5 in WNW 17.7 mph 17.7 mph 86 % 0.0 in 12.0 W/m2 BKN
08:53 6.8 °F 4.8 °F 1018.8 in WNW 24.1 mph 24.1 mph 87 % 0.0 in 16.0 W/m2 BKN
08:59 6.8 °F 4.8 °F 1018.8 in NW 20.4 mph 20.4 mph 87 % 0.0 in 18.0 W/m2 BKN
09:04 6.8 °F 4.7 °F 1018.8 in WNW 24.1 mph 24.1 mph 86 % 0.0 in 23.0 W/m2 BKN
09:09 6.9 °F 4.7 °F 1018.8 in NW 24.1 mph 24.1 mph 86 % 0.0 in 28.0 W/m2 BKN
09:14 7.0 °F 4.7 °F 1018.8 in NW 31.5 mph 31.5 mph 85 % 0.0 in 33.0 W/m2 BKN
09:19 7.1 °F 4.8 °F 1019.2 in WNW 25.9 mph 25.9 mph 85 % 0.0 in 39.0 W/m2 BKN
09:24 7.2 °F 4.7 °F 1019.2 in NW 22.5 mph 22.5 mph 84 % 0.0 in 47.0 W/m2 BKN
09:29 7.2 °F 4.7 °F 1019.2 in NW 27.4 mph 27.4 mph 84 % 0.0 in 53.0 W/m2 BKN
09:34 7.3 °F 4.6 °F 1019.2 in NW 29.6 mph 29.6 mph 83 % 0.0 in 54.0 W/m2 SCT
09:39 7.4 °F 4.7 °F 1019.5 in NW 13.0 mph 15.3 mph 83 % 0.0 in 60.0 W/m2 SCT
09:44 7.4 °F 4.6 °F 1019.5 in WNW 25.9 mph 25.9 mph 82 % 0.0 in 74.0 W/m2 SCT
09:49 7.5 °F 4.6 °F 1019.5 in NW 33.3 mph 33.3 mph 82 % 0.0 in 81.0 W/m2 FEW
09:54 7.6 °F 4.7 °F 1019.5 in NW 25.9 mph 25.9 mph 82 % 0.0 in 84.0 W/m2 FEW
09:59 7.6 °F 4.6 °F 1019.9 in NW 24.1 mph 24.1 mph 81 % 0.0 in 93.0 W/m2 FEW
10:04 7.7 °F 4.6 °F 1019.9 in NW 27.8 mph 27.8 mph 81 % 0.0 in 102.0 W/m2 CLR
10:09 7.7 °F 4.5 °F 1019.9 in NW 25.9 mph 25.9 mph 80 % 0.0 in 113.0 W/m2 CLR
10:14 7.8 °F 4.6 °F 1020.2 in NW 31.5 mph 31.5 mph 80 % 0.0 in 132.0 W/m2 CLR
10:19 7.9 °F 4.7 °F 1020.2 in NW 29.6 mph 29.6 mph 80 % 0.0 in 111.0 W/m2 CLR
10:24 7.9 °F 4.7 °F 1020.2 in NW 29.0 mph 29.0 mph 80 % 0.0 in 120.0 W/m2 CLR
10:29 8.0 °F 4.6 °F 1020.2 in NW 24.1 mph 24.1 mph 79 % 0.0 in 114.0 W/m2 CLR
10:34 8.0 °F 4.6 °F 1020.5 in NW 27.4 mph 27.4 mph 79 % 0.0 in 135.0 W/m2 CLR
10:39 8.1 °F 4.7 °F 1020.5 in NW 25.9 mph 25.9 mph 79 % 0.0 in 130.0 W/m2 CLR
10:44 8.1 °F 4.7 °F 1020.5 in NW 22.5 mph 22.5 mph 79 % 0.0 in 137.0 W/m2 CLR
10:49 8.2 °F 4.6 °F 1020.5 in NW 29.6 mph 29.6 mph 78 % 0.0 in 146.0 W/m2 CLR
10:54 8.2 °F 4.6 °F 1020.5 in NW 27.8 mph 27.8 mph 78 % 0.0 in 169.0 W/m2 CLR
10:59 8.4 °F 4.8 °F 1020.5 in NW 29.6 mph 29.6 mph 78 % 0.0 in 381.0 W/m2 CLR
11:04 8.6 °F 4.8 °F 1020.5 in NW 40.7 mph 40.7 mph 77 % 0.0 in 339.0 W/m2 CLR
11:09 8.8 °F 4.8 °F 1020.5 in NW 35.2 mph 35.2 mph 76 % 0.0 in 445.0 W/m2 CLR
11:14 9.1 °F 5.1 °F 1020.9 in NW 35.2 mph 35.2 mph 76 % 0.0 in 513.0 W/m2 CLR
11:19 9.4 °F 5.4 °F 1020.9 in NW 35.2 mph 35.2 mph 76 % 0.0 in 522.0 W/m2 CLR
11:24 9.4 °F 4.8 °F 1020.9 in NW 29.6 mph 29.6 mph 73 % 0.0 in 385.0 W/m2 CLR
11:29 9.5 °F 5.1 °F 1020.9 in NW 37.0 mph 37.0 mph 74 % 0.0 in 547.0 W/m2 CLR
11:34 9.6 °F 5.2 °F 1020.9 in NW 24.1 mph 24.1 mph 74 % 0.0 in 457.0 W/m2 CLR
11:39 9.7 °F 4.9 °F 1020.9 in NW 42.6 mph 42.6 mph 72 % 0.0 in 439.0 W/m2 CLR
11:44 9.8 °F 5.0 °F 1020.9 in NW 31.5 mph 31.5 mph 72 % 0.0 in 441.0 W/m2 CLR
11:49 10.0 °F 5.4 °F 1020.9 in NW 30.6 mph 30.6 mph 73 % 0.0 in 468.0 W/m2 CLR
11:54 10.2 °F 5.2 °F 1020.9 in NW 37.0 mph 37.0 mph 71 % 0.0 in 504.0 W/m2 CLR
11:59 10.2 °F 4.2 °F 1020.9 in NW 51.8 mph 51.8 mph 66 % 0.0 in 557.0 W/m2 CLR
12:04 10.2 °F 4.6 °F 1020.9 in NW 37.0 mph 37.0 mph 68 % 0.0 in 533.0 W/m2 CLR
12:09 10.3 °F 4.2 °F 1020.9 in NW 50.0 mph 50.0 mph 66 % 0.0 in 510.0 W/m2 CLR
12:14 10.3 °F 4.4 °F 1020.9 in NW 38.9 mph 38.9 mph 67 % 0.0 in 499.0 W/m2 CLR
12:19 10.4 °F 4.6 °F 1020.9 in NW 37.0 mph 37.0 mph 67 % 0.0 in 489.0 W/m2 CLR
12:24 10.6 °F 4.5 °F 1020.9 in NW 38.9 mph 38.9 mph 66 % 0.0 in 490.0 W/m2 CLR
12:29 10.6 °F 4.0 °F 1020.9 in NW 46.3 mph 46.3 mph 64 % 0.0 in 499.0 W/m2 CLR
12:34 10.6 °F 3.8 °F 1020.9 in NW 38.9 mph 38.9 mph 63 % 0.0 in 503.0 W/m2 CLR
12:39 10.7 °F 3.7 °F 1020.9 in NW 44.4 mph 44.4 mph 62 % 0.0 in 510.0 W/m2 CLR
12:44 10.8 °F 4.1 °F 1020.9 in NW 35.4 mph 35.4 mph 63 % 0.0 in 520.0 W/m2 CLR
12:49 10.9 °F 4.3 °F 1020.9 in NW 29.6 mph 29.6 mph 64 % 0.0 in 548.0 W/m2 CLR
12:54 11.0 °F 4.7 °F 1020.9 in NW 37.0 mph 37.0 mph 65 % 0.0 in 494.0 W/m2 CLR
12:59 10.9 °F 4.6 °F 1020.9 in NW 31.5 mph 31.5 mph 65 % 0.0 in 288.0 W/m2 CLR
13:04 10.6 °F 4.4 °F 1020.9 in NW 33.3 mph 33.3 mph 66 % 0.0 in 285.0 W/m2 CLR
13:09 10.6 °F 4.2 °F 1020.9 in NW 46.3 mph 46.3 mph 65 % 0.0 in 359.0 W/m2 CLR
13:14 10.8 °F 4.4 °F 1020.9 in NW 49.9 mph 49.9 mph 65 % 0.0 in 656.0 W/m2 CLR
13:19 10.9 °F 4.3 °F 1020.9 in NW 42.6 mph 42.6 mph 64 % 0.0 in 622.0 W/m2 CLR
13:24 10.9 °F 4.3 °F 1020.5 in NW 42.6 mph 42.6 mph 64 % 0.0 in 629.0 W/m2 CLR
13:29 10.8 °F 4.0 °F 1020.5 in NW 40.7 mph 40.7 mph 63 % 0.0 in 195.0 W/m2 CLR
13:34 10.6 °F 4.1 °F 1020.5 in NNW 38.9 mph 38.9 mph 64 % 0.0 in 322.0 W/m2 CLR
13:44 10.5 °F 4.2 °F 1020.5 in NW 32.2 mph 32.2 mph 65 % 0.0 in 272.0 W/m2 CLR
13:49 10.6 °F 4.4 °F 1020.5 in NW 37.0 mph 37.0 mph 66 % 0.0 in 406.0 W/m2 CLR
13:50 10.6 °F 4.5 °F 1020.5 in NW 37.0 mph 37.0 mph 66 % 0.0 in 503.0 W/m2 CLR
13:55 10.5 °F 4.2 °F 1020.5 in WNW 31.5 mph 31.5 mph 65 % 0.0 in 139.0 W/m2 CLR
14:00 10.3 °F 4.1 °F 1020.5 in WNW 31.5 mph 31.5 mph 65 % 0.0 in 127.0 W/m2 CLR
14:05 10.3 °F 4.0 °F 1020.5 in WNW 27.8 mph 27.8 mph 65 % 0.0 in 149.0 W/m2 CLR
14:10 10.4 °F 3.9 °F 1020.5 in WNW 31.5 mph 31.5 mph 64 % 0.0 in 378.0 W/m2 CLR
14:15 10.8 °F 4.5 °F 1020.5 in WNW 29.6 mph 29.6 mph 65 % 0.0 in 517.0 W/m2 CLR
14:20 11.2 °F 4.2 °F 1020.5 in NW 37.0 mph 37.0 mph 62 % 0.0 in 489.0 W/m2 CLR
14:25 11.3 °F 4.3 °F 1020.5 in NW 33.3 mph 33.3 mph 62 % 0.0 in 473.0 W/m2 CLR
14:30 11.3 °F 4.3 °F 1020.5 in NW 29.6 mph 29.6 mph 62 % 0.0 in 471.0 W/m2 CLR
14:35 11.4 °F 4.6 °F 1020.5 in NW 31.5 mph 31.5 mph 63 % 0.0 in 464.0 W/m2 CLR
14:40 11.3 °F 3.8 °F 1020.5 in NW 35.4 mph 35.4 mph 60 % 0.0 in 457.0 W/m2 CLR
14:45 11.4 °F 3.9 °F 1020.2 in NW 38.9 mph 38.9 mph 60 % 0.0 in 450.0 W/m2 CLR
14:50 11.5 °F 3.8 °F 1020.5 in NW 38.9 mph 38.9 mph 59 % 0.0 in 434.0 W/m2 CLR
14:55 11.5 °F 4.0 °F 1020.5 in NW 27.8 mph 27.8 mph 60 % 0.0 in 434.0 W/m2 CLR
15:00 11.6 °F 4.1 °F 1020.5 in NW 35.2 mph 35.2 mph 60 % 0.0 in 418.0 W/m2 CLR
15:05 11.6 °F 3.8 °F 1020.5 in NW 20.9 mph 20.9 mph 59 % 0.0 in 380.0 W/m2 CLR
15:10 11.7 °F 3.9 °F 1020.5 in NW 29.6 mph 29.6 mph 59 % 0.0 in 413.0 W/m2 CLR
15:15 11.8 °F 3.8 °F 1020.5 in NW 31.5 mph 31.5 mph 58 % 0.0 in 403.0 W/m2 CLR
15:20 11.8 °F 4.3 °F 1020.5 in NW 29.6 mph 29.6 mph 60 % 0.0 in 394.0 W/m2 CLR
15:25 11.9 °F 4.1 °F 1020.5 in NW 27.8 mph 27.8 mph 59 % 0.0 in 385.0 W/m2 CLR
15:30 11.9 °F 4.7 °F 1020.5 in NW 24.1 mph 24.1 mph 61 % 0.0 in 373.0 W/m2 CLR
15:35 11.9 °F 3.6 °F 1020.5 in NW 40.7 mph 40.7 mph 57 % 0.0 in 366.0 W/m2 CLR
15:40 11.9 °F 4.1 °F 1020.9 in WNW 31.5 mph 31.5 mph 59 % 0.0 in 353.0 W/m2 CLR
15:45 11.9 °F 4.1 °F 1020.9 in WNW 25.7 mph 25.7 mph 59 % 0.0 in 334.0 W/m2 CLR
15:50 11.8 °F 3.8 °F 1020.9 in NW 29.6 mph 29.6 mph 58 % 0.0 in 329.0 W/m2 CLR
15:55 11.7 °F 3.5 °F 1020.9 in NW 25.9 mph 25.9 mph 57 % 0.0 in 316.0 W/m2 CLR
16:00 11.7 °F 4.2 °F 1021.2 in NW 22.5 mph 22.5 mph 60 % 0.0 in 308.0 W/m2 CLR
16:05 11.8 °F 3.6 °F 1021.2 in NW 24.1 mph 24.1 mph 57 % 0.0 in 295.0 W/m2 CLR
16:10 11.8 °F 3.6 °F 1021.2 in NW 31.5 mph 31.5 mph 57 % 0.0 in 281.0 W/m2 CLR
16:15 11.8 °F 3.8 °F 1021.2 in NW 27.8 mph 27.8 mph 58 % 0.0 in 267.0 W/m2 CLR
16:20 11.7 °F 3.7 °F 1021.2 in NW 24.1 mph 24.1 mph 58 % 0.0 in 255.0 W/m2 CLR
16:25 11.7 °F 3.5 °F 1021.2 in NW 31.5 mph 31.5 mph 57 % 0.0 in 244.0 W/m2 CLR
16:30 11.7 °F 3.7 °F 1021.2 in NW 31.5 mph 31.5 mph 58 % 0.0 in 229.0 W/m2 CLR
16:35 11.8 °F 3.8 °F 1021.6 in WNW 20.4 mph 20.4 mph 58 % 0.0 in 209.0 W/m2 CLR
16:40 11.8 °F 3.8 °F 1021.6 in WNW 20.9 mph 20.9 mph 58 % 0.0 in 195.0 W/m2 CLR
16:45 11.7 °F 3.2 °F 1021.6 in NW 27.8 mph 27.8 mph 56 % 0.0 in 183.0 W/m2 CLR
16:50 11.7 °F 2.7 °F 1021.6 in NW 25.9 mph 25.9 mph 54 % 0.0 in 158.0 W/m2 CLR
16:55 11.7 °F 2.9 °F 1021.6 in NW 25.9 mph 25.9 mph 55 % 0.0 in 146.0 W/m2 CLR
17:00 11.6 °F 3.1 °F 1021.6 in WNW 24.1 mph 24.1 mph 56 % 0.0 in 109.0 W/m2 CLR
17:05 11.6 °F 2.8 °F 1021.6 in NW 22.2 mph 22.2 mph 55 % 0.0 in 98.0 W/m2 CLR
17:06 11.6 °F 3.1 °F 1021.6 in NW 22.2 mph 22.2 mph 56 % 0.0 in 98.0 W/m2 CLR
17:11 11.4 °F 2.9 °F 1021.9 in NW 18.5 mph 18.5 mph 56 % 0.0 in 86.0 W/m2 CLR
17:16 11.3 °F 3.1 °F 1021.9 in NW 30.6 mph 30.6 mph 57 % 0.0 in 67.0 W/m2 SCT
17:21 11.1 °F 3.2 °F 1021.9 in NW 24.1 mph 24.1 mph 58 % 0.0 in 70.0 W/m2 FEW
17:26 11.1 °F 3.1 °F 1021.9 in NW 24.1 mph 24.1 mph 58 % 0.0 in 56.0 W/m2 SCT
17:31 11.0 °F 3.3 °F 1021.9 in WNW 27.8 mph 27.8 mph 59 % 0.0 in 42.0 W/m2 BKN
17:36 10.8 °F 3.1 °F 1021.9 in WNW 20.4 mph 20.4 mph 59 % 0.0 in 23.0 W/m2 BKN
17:41 10.7 °F 3.0 °F 1021.9 in WNW 16.7 mph 16.7 mph 59 % 0.0 in 19.0 W/m2 BKN
17:46 10.6 °F 2.9 °F 1022.2 in WNW 18.5 mph 18.5 mph 59 % 0.0 in 16.0 W/m2 BKN
17:51 10.6 °F 2.9 °F 1022.2 in WNW 18.5 mph 18.5 mph 59 % 0.0 in 11.0 W/m2 BKN
17:56 10.4 °F 3.0 °F 1022.2 in WNW 18.5 mph 18.5 mph 60 % 0.0 in 9.0 W/m2 BKN
18:01 10.3 °F 2.7 °F 1022.2 in WNW 14.8 mph 14.8 mph 59 % 0.0 in 7.0 W/m2 BKN
18:06 10.3 °F 2.7 °F 1022.2 in West 11.1 mph 11.1 mph 59 % 0.0 in 5.0 W/m2 OVC
18:11 10.2 °F 2.6 °F 1022.2 in West 13.0 mph 13.0 mph 59 % 0.0 in 0.0 W/m2 OVC
18:16 10.1 °F 2.7 °F 1022.6 in Calm     60 % 0.0 in 0.0 W/m2 OVC
18:21 9.9 °F 2.6 °F 1022.6 in Calm     60 % 0.0 in 0.0 W/m2 OVC
18:26 9.8 °F 2.7 °F 1022.6 in WNW 14.8 mph 14.8 mph 61 % 0.0 in 0.0 W/m2 CLR
18:31 9.8 °F 2.8 °F 1022.6 in Calm     62 % 0.0 in 0.0 W/m2 CLR
18:36 9.6 °F 2.7 °F 1022.9 in WNW 13.0 mph 13.0 mph 62 % 0.0 in 0.0 W/m2 CLR
18:41 9.5 °F 2.8 °F 1022.9 in Calm     63 % 0.0 in 0.0 W/m2 CLR
18:46 9.4 °F 2.7 °F 1022.9 in WNW 9.3 mph 9.3 mph 63 % 0.0 in 0.0 W/m2 CLR
18:51 9.4 °F 2.7 °F 1023.2 in WNW 14.8 mph 14.8 mph 63 % 0.0 in 0.0 W/m2 CLR
18:56 9.4 °F 2.4 °F 1023.2 in WNW 18.5 mph 18.5 mph 62 % 0.0 in 0.0 W/m2 CLR
19:01 9.4 °F 2.4 °F 1023.2 in WNW 20.4 mph 20.4 mph 62 % 0.0 in 0.0 W/m2 CLR
19:06 9.3 °F 2.4 °F 1023.2 in West 14.8 mph 14.8 mph 62 % 0.0 in 0.0 W/m2 CLR
19:11 9.3 °F 2.4 °F 1023.2 in West 16.1 mph 16.1 mph 62 % 0.0 in 0.0 W/m2 CLR
19:16 9.2 °F 2.3 °F 1023.2 in West 16.7 mph 16.7 mph 62 % 0.0 in 0.0 W/m2 CLR
19:21 9.2 °F 2.3 °F 1023.2 in West 9.3 mph 9.3 mph 62 % 0.0 in 0.0 W/m2 CLR
19:26 9.1 °F 2.4 °F 1023.6 in West 5.6 mph   63 % 0.0 in 0.0 W/m2 CLR
19:31 8.9 °F 2.3 °F 1023.6 in Calm     63 % 0.0 in 0.0 W/m2 CLR
19:36 8.9 °F 2.4 °F 1023.9 in Calm     64 % 0.0 in 0.0 W/m2 CLR
19:41 8.8 °F 2.4 °F 1023.9 in WSW 11.1 mph 11.1 mph 64 % 0.0 in 0.0 W/m2 CLR
19:46 8.8 °F 2.3 °F 1023.9 in WSW 7.4 mph   64 % 0.0 in 0.0 W/m2 CLR
19:51 8.8 °F 2.3 °F 1023.9 in West 14.8 mph 14.8 mph 64 % 0.0 in 0.0 W/m2 CLR
19:56 8.8 °F 2.3 °F 1024.3 in West 16.1 mph 16.1 mph 64 % 0.0 in 0.0 W/m2 CLR
20:01 8.8 °F 2.6 °F 1024.3 in West 14.8 mph 14.8 mph 65 % 0.0 in 0.0 W/m2 CLR
20:06 8.8 °F 2.6 °F 1024.3 in West 24.1 mph 24.1 mph 65 % 0.0 in 0.0 W/m2 CLR
20:11 8.8 °F 2.6 °F 1024.3 in West 24.1 mph 24.1 mph 65 % 0.0 in 0.0 W/m2 CLR
20:16 8.9 °F 2.7 °F 1024.3 in West 22.2 mph 22.2 mph 65 % 0.0 in 0.0 W/m2 CLR
20:21 8.9 °F 2.4 °F 1024.3 in West 20.4 mph 20.4 mph 64 % 0.0 in 0.0 W/m2 CLR
20:26 8.9 °F 2.5 °F 1024.3 in West 18.5 mph 18.5 mph 64 % 0.0 in 0.0 W/m2 CLR
20:31 8.9 °F 2.4 °F 1024.3 in West 18.5 mph 18.5 mph 64 % 0.0 in 0.0 W/m2 CLR
20:36 8.8 °F 2.4 °F 1024.6 in West 18.5 mph 18.5 mph 64 % 0.0 in 0.0 W/m2 CLR
20:41 8.8 °F 2.4 °F 1024.6 in West 22.2 mph 22.2 mph 64 % 0.0 in 0.0 W/m2 CLR
20:46 8.8 °F 2.3 °F 1024.6 in West 18.5 mph 18.5 mph 64 % 0.0 in 0.0 W/m2 CLR
20:51 8.7 °F 2.3 °F 1024.6 in West 18.5 mph 18.5 mph 64 % 0.0 in 0.0 W/m2 CLR
20:56 8.6 °F 2.2 °F 1024.6 in West 14.8 mph 14.8 mph 64 % 0.0 in 0.0 W/m2 CLR
21:01 8.3 °F 2.1 °F 1024.6 in WSW 20.4 mph 20.4 mph 65 % 0.0 in 0.0 W/m2 CLR
21:06 8.1 °F 2.3 °F 1024.9 in WSW 16.7 mph 16.7 mph 67 % 0.0 in 0.0 W/m2 CLR
21:12 7.7 °F 2.1 °F 1024.9 in WSW 14.8 mph 14.8 mph 68 % 0.0 in 0.0 W/m2 CLR
21:17 7.3 °F 2.2 °F 1024.9 in WSW 11.1 mph 11.1 mph 70 % 0.0 in 0.0 W/m2 CLR
21:27 7.7 °F 2.1 °F 1024.9 in West 24.1 mph 24.1 mph 68 % 0.0 in 0.0 W/m2 CLR
21:32 8.0 °F 2.2 °F 1024.9 in West 18.5 mph 18.5 mph 67 % 0.0 in 0.0 W/m2 CLR
21:37 8.1 °F 2.1 °F 1025.3 in West 18.5 mph 18.5 mph 66 % 0.0 in 0.0 W/m2 CLR
21:42 8.1 °F 2.1 °F 1025.3 in West 24.1 mph 24.1 mph 66 % 0.0 in 0.0 W/m2 CLR
21:47 8.1 °F 2.3 °F 1025.3 in West 20.4 mph 20.4 mph 67 % 0.0 in 0.0 W/m2 CLR
21:52 7.9 °F 2.1 °F 1025.3 in West 16.7 mph 16.7 mph 67 % 0.0 in 0.0 W/m2 CLR
21:57 7.9 °F 2.1 °F 1025.3 in West 20.4 mph 20.4 mph 67 % 0.0 in 0.0 W/m2 CLR
22:02 8.1 °F 2.1 °F 1025.6 in West 24.1 mph 24.1 mph 66 % 0.0 in 0.0 W/m2 CLR
22:07 8.1 °F 2.1 °F 1025.6 in West 24.1 mph 24.1 mph 66 % 0.0 in 0.0 W/m2 CLR
22:12 8.1 °F 2.1 °F 1025.6 in West 22.2 mph 22.2 mph 66 % 0.0 in 0.0 W/m2 CLR
22:17 8.2 °F 2.2 °F 1025.6 in West 20.4 mph 20.4 mph 66 % 0.0 in 0.0 W/m2 CLR
22:22 8.1 °F 2.1 °F 1025.6 in West 25.9 mph 25.9 mph 66 % 0.0 in 0.0 W/m2 CLR
22:27 8.1 °F 2.1 °F 1025.6 in West 20.4 mph 20.4 mph 66 % 0.0 in 0.0 W/m2 CLR
22:32 8.0 °F 2.1 °F 1025.6 in West 20.4 mph 20.4 mph 66 % 0.0 in 0.0 W/m2 CLR
22:37 7.9 °F 2.0 °F 1025.6 in West 24.1 mph 24.1 mph 66 % 0.0 in 0.0 W/m2 CLR
22:42 7.9 °F 1.9 °F 1025.6 in West 27.8 mph 27.8 mph 66 % 0.0 in 0.0 W/m2 CLR
22:47 7.8 °F 2.1 °F 1025.6 in West 24.1 mph 24.1 mph 67 % 0.0 in 0.0 W/m2 CLR
22:52 7.7 °F 1.9 °F 1025.6 in West 24.1 mph 24.1 mph 67 % 0.0 in 0.0 W/m2 CLR
22:57 7.6 °F 1.9 °F 1025.6 in West 24.1 mph 24.1 mph 67 % 0.0 in 0.0 W/m2 CLR
23:02 7.4 °F 1.9 °F 1026.0 in West 27.8 mph 27.8 mph 68 % 0.0 in 0.0 W/m2 CLR
23:07 7.4 °F 1.9 °F 1025.6 in West 20.9 mph 20.9 mph 68 % 0.0 in 0.0 W/m2 CLR
23:12 7.4 °F 2.1 °F 1026.0 in West 25.9 mph 25.9 mph 69 % 0.0 in 0.0 W/m2 CLR
23:17 7.3 °F 2.0 °F 1026.0 in West 22.5 mph 22.5 mph 69 % 0.0 in 0.0 W/m2 CLR
23:22 7.3 °F 2.0 °F 1026.0 in West 20.9 mph 20.9 mph 69 % 0.0 in 0.0 W/m2 CLR
23:27 7.3 °F 2.0 °F 1026.0 in West 19.3 mph 19.3 mph 69 % 0.0 in 0.0 W/m2 CLR
23:32 7.3 °F 1.9 °F 1026.0 in West 16.7 mph 16.7 mph 69 % 0.0 in 0.0 W/m2 CLR
23:37 7.2 °F 2.1 °F 1026.0 in West 20.4 mph 20.4 mph 70 % 0.0 in 0.0 W/m2 CLR
23:42 7.3 °F 1.9 °F 1026.0 in West 18.5 mph 18.5 mph 69 % 0.0 in 0.0 W/m2 CLR
23:47 7.2 °F 1.9 °F 1026.0 in West 18.5 mph 18.5 mph 69 % 0.0 in 0.0 W/m2 CLR
23:52 7.2 °F 1.9 °F 1026.0 in West 19.3 mph 19.3 mph 69 % 0.0 in 0.0 W/m2 CLR
23:57 7.2 °F 1.9 °F 1026.0 in West 18.5 mph 18.5 mph 69 % 0.0 in 0.0 W/m2 CLR
Lo Temps de Massalio
Compliments of Weather Underground - 1.25 mb